Time;durP1;ratioP1;P1;durP2;ratioP2;P2;SDS_P1;SDS_P2;PMS_P1;PMS_P2;Temp;Humidity;BMP_temperature;BMP_pressure;BME280_temperature;BME280_humidity;BME280_pressure;Samples;Min_cycle;Max_cycle;Signal;HPM_P1;HPM_P2
2023/10/04 00:01:47;;;;;;;1.65;1.55;;;;;;;19.02;62.07;96423.59;5033886;28;20664;-80
2023/10/04 00:04:14;;;;;;;1.75;1.55;;;;;;;18.93;61.99;96428.25;5038534;28;20202;-79
2023/10/04 00:06:41;;;;;;;1.90;1.40;;;;;;;18.93;61.93;96422.22;5034267;28;20731;-80
2023/10/04 00:09:09;;;;;;;2.33;1.75;;;;;;;18.88;61.68;96416.81;5034760;28;20214;-79
2023/10/04 00:11:39;;;;;;;2.03;1.50;;;;;;;18.83;61.86;96420.06;5034877;28;20198;-79
2023/10/04 00:14:07;;;;;;;2.28;1.50;;;;;;;18.72;62.08;96432.94;5034817;28;20202;-80
2023/10/04 00:16:34;;;;;;;2.00;1.48;;;;;;;18.74;62.24;96433.53;5017222;28;20199;-80
2023/10/04 00:19:05;;;;;;;2.60;1.92;;;;;;;18.74;62.29;96438.75;5023721;28;20689;-80
2023/10/04 00:21:33;;;;;;;2.03;1.45;;;;;;;18.71;62.35;96441.78;5036889;28;20782;-80
2023/10/04 00:24:01;;;;;;;1.92;1.70;;;;;;;18.68;62.60;96444.78;5036814;28;20270;-81
2023/10/04 00:26:27;;;;;;;2.15;1.70;;;;;;;18.72;62.59;96443.38;5035406;28;20197;-80
2023/10/04 00:28:54;;;;;;;2.28;1.42;;;;;;;18.61;62.73;96445.63;5036467;28;20245;-81
2023/10/04 00:31:20;;;;;;;1.75;1.63;;;;;;;18.60;62.82;96456.28;5036474;28;20202;-78
2023/10/04 00:33:49;;;;;;;3.15;1.77;;;;;;;18.64;62.70;96444.44;5035294;28;20225;-80
2023/10/04 00:36:20;;;;;;;2.03;1.83;;;;;;;18.61;62.59;96447.44;5034880;28;20211;-79
2023/10/04 00:38:46;;;;;;;2.70;1.98;;;;;;;18.63;62.66;96448.03;5035371;28;20282;-79
2023/10/04 00:41:14;;;;;;;2.28;1.65;;;;;;;18.66;62.40;96426.75;5027146;28;20682;-80
2023/10/04 00:43:49;;;;;;;1.65;1.55;;;;;;;18.65;62.38;96425.16;5028250;28;20217;-79
2023/10/04 00:46:18;;;;;;;2.03;1.63;;;;;;;18.57;62.59;96426.16;5035967;28;20213;-80
2023/10/04 00:48:46;;;;;;;2.28;1.60;;;;;;;18.43;62.88;96442.84;5036087;28;20252;-80
2023/10/04 00:51:13;;;;;;;2.13;1.70;;;;;;;18.39;63.28;96446.06;5032746;28;20216;-80
2023/10/04 00:53:40;;;;;;;1.80;1.65;;;;;;;18.39;63.26;96448.66;5033605;28;20264;-79
2023/10/04 00:56:09;;;;;;;3.20;1.50;;;;;;;18.35;63.55;96444.84;5034104;28;20887;-79
2023/10/04 00:58:37;;;;;;;1.63;1.30;;;;;;;18.32;63.32;96446.06;5033213;28;20222;-79
2023/10/04 01:01:06;;;;;;;2.28;1.60;;;;;;;18.25;63.42;96446.09;5034277;28;20206;-78
2023/10/04 01:03:36;;;;;;;2.63;1.60;;;;;;;18.28;63.55;96450.06;5035368;28;20206;-79
2023/10/04 01:06:05;;;;;;;1.73;1.63;;;;;;;18.30;63.45;96438.44;5052042;28;20208;-80
2023/10/04 01:08:32;;;;;;;1.75;1.60;;;;;;;18.25;63.64;96437.47;5031987;28;20233;-79
2023/10/04 01:10:59;;;;;;;1.90;1.38;;;;;;;18.14;63.82;96449.28;5034191;28;20296;-78
2023/10/04 01:13:26;;;;;;;2.83;1.77;;;;;;;18.10;64.13;96453.31;5034714;28;20209;-80
2023/10/04 01:15:55;;;;;;;2.03;1.70;;;;;;;18.00;64.67;96458.13;5020180;28;20199;-80
2023/10/04 01:18:22;;;;;;;3.30;1.85;;;;;;;17.91;64.76;96462.72;5020196;28;20309;-80
2023/10/04 01:20:49;;;;;;;2.85;1.80;;;;;;;17.83;65.14;96473.38;5033449;28;20202;-79
2023/10/04 01:23:18;;;;;;;3.60;1.40;;;;;;;17.82;64.88;96481.38;5031148;28;20241;-79
2023/10/04 01:25:47;;;;;;;3.88;1.70;;;;;;;17.69;65.61;96497.81;5033578;28;20202;-81
2023/10/04 01:28:17;;;;;;;1.67;1.58;;;;;;;17.73;65.43;96491.19;5033749;28;20229;-80
2023/10/04 01:30:45;;;;;;;2.50;1.70;;;;;;;17.79;65.28;96477.38;5033291;28;20203;-80
2023/10/04 01:33:15;;;;;;;1.75;1.42;;;;;;;17.79;65.48;96485.19;5021058;28;20202;-79
2023/10/04 01:35:42;;;;;;;3.17;1.70;;;;;;;17.80;65.21;96478.97;5021794;28;20225;-80
2023/10/04 01:38:08;;;;;;;2.47;1.63;;;;;;;17.80;65.15;96467.75;5020937;28;20301;-78
2023/10/04 01:40:38;;;;;;;1.85;1.63;;;;;;;17.70;65.52;96490.81;5031498;28;20260;-80
2023/10/04 01:43:14;;;;;;;2.45;1.80;;;;;;;17.70;65.83;96490.81;5025973;28;20253;-80
2023/10/04 01:45:43;;;;;;;2.00;1.60;;;;;;;17.80;65.61;96491.19;5016663;28;20198;-80
2023/10/04 01:48:09;;;;;;;1.70;1.60;;;;;;;17.82;65.11;96466.56;5033004;28;20229;-81
2023/10/04 01:50:36;;;;;;;2.05;1.85;;;;;;;17.60;65.86;96493.75;5033896;28;20203;-78
2023/10/04 01:53:03;;;;;;;2.13;1.75;;;;;;;17.58;66.13;96495.75;5032983;28;20206;-80
2023/10/04 01:55:29;;;;;;;2.13;1.80;;;;;;;17.57;66.13;96500.16;5031696;28;20209;-79
2023/10/04 01:57:57;;;;;;;1.33;1.23;;;;;;;17.58;66.08;96501.75;5032281;28;20228;-79
2023/10/04 02:00:28;;;;;;;2.45;1.60;;;;;;;17.61;66.13;96508.38;5033829;28;20297;-80
2023/10/04 02:02:54;;;;;;;2.83;1.60;;;;;;;17.54;66.43;96512.75;5033006;28;20202;-79
2023/10/04 02:05:28;;;;;;;3.95;1.60;;;;;;;17.54;66.26;96499.75;5048316;28;20197;-78
2023/10/04 02:07:56;;;;;;;2.17;1.75;;;;;;;17.54;66.26;96497.94;5015962;28;20213;-79
2023/10/04 02:10:22;;;;;;;2.10;1.60;;;;;;;17.58;66.27;96498.34;5032726;28;20205;-79
2023/10/04 02:12:50;;;;;;;1.85;1.60;;;;;;;17.55;66.44;96503.94;5030857;28;20206;-80
2023/10/04 02:15:18;;;;;;;2.60;1.80;;;;;;;17.51;66.40;96498.31;5025541;28;20199;-79
2023/10/04 02:17:45;;;;;;;3.13;1.70;;;;;;;17.48;66.42;96496.13;5014832;28;21924;-79
2023/10/04 02:20:15;;;;;;;1.95;1.70;;;;;;;17.44;66.57;96494.13;5032857;28;20281;-80
2023/10/04 02:22:41;;;;;;;2.53;1.73;;;;;;;17.41;66.55;96503.13;5032156;28;20209;-79
2023/10/04 02:25:13;;;;;;;2.22;1.83;;;;;;;17.38;66.89;96507.91;5032399;28;20229;-79
2023/10/04 02:27:39;;;;;;;2.67;1.80;;;;;;;17.37;66.80;96495.91;5031102;28;20770;-79
2023/10/04 02:30:14;;;;;;;3.55;1.80;;;;;;;17.47;66.38;96496.34;5032728;28;20264;-82
2023/10/04 02:32:43;;;;;;;2.75;1.83;;;;;;;17.46;66.29;96492.13;5024554;28;20198;-81
2023/10/04 02:35:11;;;;;;;2.45;1.65;;;;;;;17.41;66.32;96490.09;5032652;28;20205;-83
2023/10/04 02:37:42;;;;;;;2.45;2.10;;;;;;;17.35;66.58;96490.88;5032946;28;20225;-81
2023/10/04 02:40:14;;;;;;;2.67;1.90;;;;;;;17.37;66.45;96485.47;5032707;28;20628;-81
2023/10/04 02:42:41;;;;;;;3.78;1.90;;;;;;;17.37;66.04;96483.69;5028542;28;20195;-80
2023/10/04 02:45:11;;;;;;;3.20;2.03;;;;;;;17.39;66.33;96484.28;5029353;28;20233;-81
2023/10/04 02:47:38;;;;;;;2.45;1.90;;;;;;;17.38;66.02;96472.28;5031938;28;20305;-80
2023/10/04 02:50:10;;;;;;;2.65;1.90;;;;;;;17.36;66.15;96476.06;5031337;28;20313;-81
2023/10/04 02:52:37;;;;;;;2.58;2.15;;;;;;;17.36;65.96;96478.66;5031524;28;20209;-80
2023/10/04 02:55:04;;;;;;;1.88;1.70;;;;;;;17.29;65.95;96463.06;5031569;28;20232;-80
2023/10/04 02:57:31;;;;;;;2.78;1.67;;;;;;;17.25;66.22;96469.63;5031547;28;20222;-80
2023/10/04 02:59:58;;;;;;;2.00;1.70;;;;;;;17.26;65.80;96468.66;5029888;28;20195;-81
2023/10/04 03:02:25;;;;;;;3.05;1.77;;;;;;;17.19;66.04;96460.00;5031326;28;20249;-81
2023/10/04 03:04:51;;;;;;;2.17;1.70;;;;;;;17.10;66.32;96474.22;5043249;28;20204;-80
2023/10/04 03:07:19;;;;;;;3.40;1.85;;;;;;;17.00;66.43;96474.56;5050080;28;20243;-80
2023/10/04 03:09:47;;;;;;;2.17;1.80;;;;;;;16.96;66.65;96488.16;5032840;28;20230;-80
2023/10/04 03:12:15;;;;;;;2.83;1.88;;;;;;;16.92;66.60;96472.13;5030893;28;20702;-82
2023/10/04 03:14:42;;;;;;;2.65;1.63;;;;;;;16.86;66.54;96476.31;5027308;28;20199;-81
2023/10/04 03:17:09;;;;;;;2.50;1.60;;;;;;;16.79;66.74;96478.06;5025727;28;20226;-82
2023/10/04 03:19:36;;;;;;;3.05;1.73;;;;;;;16.77;66.78;96493.06;5031068;28;20202;-81
2023/10/04 03:22:06;;;;;;;2.60;1.75;;;;;;;16.81;66.57;96486.47;5034125;28;20207;-81
2023/10/04 03:24:35;;;;;;;2.13;1.80;;;;;;;16.81;66.48;96480.47;5034882;28;20778;-81
2023/10/04 03:27:04;;;;;;;1.58;1.48;;;;;;;16.62;67.06;96492.34;5032998;28;20218;-81
2023/10/04 03:29:31;;;;;;;2.28;1.83;;;;;;;16.52;67.72;96515.31;5016179;28;20226;-81
2023/10/04 03:31:57;;;;;;;1.83;1.70;;;;;;;16.31;68.21;96536.16;5022955;28;20202;-80
2023/10/04 03:34:24;;;;;;;3.08;1.50;;;;;;;16.23;68.51;96542.28;5033363;28;20209;-80
2023/10/04 03:36:51;;;;;;;2.03;1.83;;;;;;;16.34;68.04;96535.78;5033666;28;20217;-80
2023/10/04 03:39:17;;;;;;;2.42;1.88;;;;;;;16.34;68.22;96534.00;5033935;28;20198;-80
2023/10/04 03:41:49;;;;;;;2.13;1.90;;;;;;;16.41;68.01;96528.81;5034216;28;20871;-82
2023/10/04 03:44:16;;;;;;;2.05;1.85;;;;;;;16.43;68.05;96522.44;5028481;28;20241;-81
2023/10/04 03:46:43;;;;;;;3.30;1.80;;;;;;;16.39;68.57;96543.78;5034086;28;20751;-82
2023/10/04 03:49:10;;;;;;;2.78;1.75;;;;;;;16.39;69.32;96575.78;5031875;28;20264;-81
2023/10/04 03:51:36;;;;;;;3.10;1.95;;;;;;;16.37;68.21;96532.78;5033998;28;20582;-81
2023/10/04 03:54:07;;;;;;;2.55;1.88;;;;;;;16.47;67.57;96513.28;5033670;28;20195;-82
2023/10/04 03:56:33;;;;;;;2.75;2.13;;;;;;;16.46;67.16;96500.47;5034523;28;20202;-81
2023/10/04 03:59:01;;;;;;;2.75;1.80;;;;;;;16.48;67.08;96511.47;5033824;28;20293;-81
2023/10/04 04:01:27;;;;;;;1.95;1.75;;;;;;;16.50;67.01;96488.69;5034924;28;20233;-80
2023/10/04 04:03:54;;;;;;;2.13;1.80;;;;;;;16.49;66.72;96494.88;5033534;28;20202;-81
2023/10/04 04:06:20;;;;;;;2.88;1.80;;;;;;;16.43;67.05;96495.63;5033230;28;20245;-82
2023/10/04 04:08:47;;;;;;;8.02;1.80;;;;;;;16.39;66.92;96500.41;5032090;28;20726;-80
2023/10/04 04:11:14;;;;;;;2.72;2.00;;;;;;;16.41;66.95;96508.81;5034495;28;20202;-80
2023/10/04 04:13:40;;;;;;;2.72;1.70;;;;;;;16.49;66.47;96497.50;5034030;28;20206;-81
2023/10/04 04:16:11;;;;;;;2.58;1.88;;;;;;;16.50;66.34;96486.09;5019215;28;20595;-79
2023/10/04 04:18:38;;;;;;;2.83;1.70;;;;;;;16.43;66.46;96482.66;5028528;28;20222;-81
2023/10/04 04:21:06;;;;;;;5.03;1.80;;;;;;;16.26;66.88;96496.94;5032732;28;20229;-81
2023/10/04 04:23:32;;;;;;;4.25;1.88;;;;;;;16.27;66.81;96485.53;5033582;28;20202;-81
2023/10/04 04:26:05;;;;;;;3.10;1.80;;;;;;;16.10;67.06;96509.22;5028130;28;20257;-82
2023/10/04 04:28:34;;;;;;;2.28;1.67;;;;;;;16.05;67.34;96518.56;5041979;28;20213;-80
2023/10/04 04:31:01;;;;;;;2.00;1.80;;;;;;;16.05;67.57;96524.56;5054660;28;20253;-79
2023/10/04 04:33:29;;;;;;;2.65;2.00;;;;;;;16.00;67.44;96523.50;5035884;28;20210;-80
2023/10/04 04:36:04;;;;;;;3.13;1.83;;;;;;;15.97;67.47;96527.25;5028895;28;20195;-80
2023/10/04 04:38:37;;;;;;;2.08;1.70;;;;;;;15.94;67.56;96530.25;5026895;28;20249;-80
2023/10/04 04:41:11;;;;;;;4.43;2.10;;;;;;;15.94;67.68;96539.84;5031130;28;20190;-80
2023/10/04 04:43:38;;;;;;;2.60;1.88;;;;;;;15.96;67.78;96540.47;5023306;28;20198;-80
2023/10/04 04:46:09;;;;;;;3.95;2.10;;;;;;;15.88;67.75;96546.59;5021713;28;20199;-80
2023/10/04 04:48:37;;;;;;;3.47;2.00;;;;;;;15.82;68.77;96566.31;5021998;28;20213;-81
2023/10/04 04:51:10;;;;;;;2.90;2.05;;;;;;;15.70;70.19;96614.53;5024331;28;20215;-80
2023/10/04 04:53:37;;;;;;;2.03;1.65;;;;;;;15.66;70.50;96631.44;5027201;28;20252;-79
2023/10/04 04:56:03;;;;;;;3.58;2.40;;;;;;;15.72;69.97;96612.56;5023810;28;20198;-80
2023/10/04 04:58:31;;;;;;;5.38;2.10;;;;;;;15.86;68.98;96580.53;5024124;28;20229;-81
2023/10/04 05:01:00;;;;;;;4.68;2.42;;;;;;;15.96;68.67;96567.25;5024048;28;20190;-81
2023/10/04 05:03:27;;;;;;;2.95;2.30;;;;;;;16.02;67.96;96557.88;5022410;28;20199;-80
2023/10/04 05:05:56;;;;;;;2.97;1.90;;;;;;;16.02;67.39;96537.09;5034778;28;20660;-81
2023/10/04 05:08:24;;;;;;;3.15;2.00;;;;;;;16.04;67.35;96535.13;5030323;28;20213;-80
2023/10/04 05:10:50;;;;;;;4.00;2.35;;;;;;;15.99;67.26;96530.50;5023558;28;20234;-80
2023/10/04 05:13:18;;;;;;;3.20;2.28;;;;;;;15.99;67.29;96540.88;5033180;28;20802;-81
2023/10/04 05:15:45;;;;;;;3.95;2.50;;;;;;;16.07;67.17;96525.16;5020163;28;20198;-80
2023/10/04 05:18:15;;;;;;;3.28;2.20;;;;;;;16.09;66.92;96525.78;5018033;28;20236;-80
2023/10/04 05:20:42;;;;;;;4.30;2.50;;;;;;;16.05;67.08;96519.34;5021634;28;20226;-79
2023/10/04 05:23:10;;;;;;;3.20;2.40;;;;;;;16.03;66.87;96525.72;5030783;28;20198;-79
2023/10/04 05:25:37;;;;;;;2.28;1.88;;;;;;;16.06;66.63;96520.16;5030914;28;20206;-79
2023/10/04 05:28:04;;;;;;;3.92;2.28;;;;;;;15.87;67.01;96521.59;5032687;28;20218;-79
2023/10/04 05:30:31;;;;;;;3.25;2.20;;;;;;;15.84;67.32;96537.53;5032873;28;20229;-79
2023/10/04 05:32:58;;;;;;;3.67;2.38;;;;;;;15.81;67.35;96533.53;5033530;28;20198;-81
2023/10/04 05:35:25;;;;;;;3.53;1.92;;;;;;;15.84;67.03;96537.53;5032188;28;20202;-80
2023/10/04 05:37:51;;;;;;;4.13;2.40;;;;;;;15.76;67.53;96538.50;5032190;28;20218;-82
2023/10/04 05:40:25;;;;;;;2.50;2.10;;;;;;;15.74;67.64;96550.03;5031918;28;20202;-81
2023/10/04 05:42:53;;;;;;;4.43;2.20;;;;;;;15.74;67.40;96550.03;5028747;28;20208;-80
2023/10/04 05:45:20;;;;;;;3.15;2.00;;;;;;;15.82;66.96;96548.13;5031911;28;20202;-81
2023/10/04 05:47:48;;;;;;;2.45;1.90;;;;;;;15.92;66.57;96537.44;5031985;28;20220;-80
2023/10/04 05:50:17;;;;;;;3.28;2.28;;;;;;;15.99;66.49;96527.09;5031460;28;20225;-82
2023/10/04 05:52:44;;;;;;;3.03;2.30;;;;;;;16.05;66.07;96524.56;5031642;28;20810;-82
2023/10/04 05:55:11;;;;;;;4.85;2.28;;;;;;;16.08;65.92;96524.19;5032158;28;20213;-81
2023/10/04 05:57:38;;;;;;;2.92;2.15;;;;;;;16.08;65.84;96521.59;5030000;28;20222;-80
2023/10/04 06:00:22;;;;;;;3.92;2.17;;;;;;;16.08;65.98;96524.19;5032241;28;20214;-81
2023/10/04 06:02:49;;;;;;;5.38;2.58;;;;;;;16.05;65.87;96529.75;5020916;28;20198;-80
2023/10/04 06:05:16;;;;;;;4.78;2.15;;;;;;;16.04;65.84;96524.75;5047213;28;20580;-80
2023/10/04 06:07:43;;;;;;;5.30;2.28;;;;;;;16.10;65.67;96527.41;5050985;28;20239;-81
2023/10/04 06:10:11;;;;;;;4.70;2.60;;;;;;;16.03;66.42;96560.31;5050892;28;20221;-79
2023/10/04 06:12:39;;;;;;;5.43;2.53;;;;;;;16.14;65.82;96536.44;5032901;28;20203;-80
2023/10/04 06:15:10;;;;;;;4.93;2.33;;;;;;;16.24;65.71;96539.50;5018441;28;20212;-80
2023/10/04 06:17:38;;;;;;;7.70;2.70;;;;;;;16.52;64.80;96518.72;5023281;28;20341;-81
2023/10/04 06:20:22;;;;;;;11.55;6.80;;;;;;;16.81;63.85;96480.47;5012214;28;20235;-81
2023/10/04 06:22:49;;;;;;;9.55;3.38;;;;;;;17.06;62.98;96446.97;5019768;28;20190;-82
2023/10/04 06:25:16;;;;;;;8.00;3.00;;;;;;;17.32;62.28;96430.63;5032033;28;20206;-80
2023/10/04 06:27:44;;;;;;;9.15;2.80;;;;;;;17.48;61.90;96412.81;5029801;28;20222;-82
2023/10/04 06:30:11;;;;;;;5.18;2.42;;;;;;;17.71;61.52;96396.00;5015518;28;20245;-80
2023/10/04 06:32:38;;;;;;;6.18;2.35;;;;;;;17.93;60.67;96374.75;5019078;28;20310;-81
2023/10/04 06:35:09;;;;;;;9.40;2.90;;;;;;;18.02;60.21;96354.50;5031158;28;20197;-80
2023/10/04 06:37:36;;;;;;;8.35;2.92;;;;;;;18.18;60.06;96356.66;5030951;28;20245;-81
2023/10/04 06:40:03;;;;;;;6.72;2.40;;;;;;;18.29;59.40;96329.13;5031297;28;20210;-81
2023/10/04 06:42:29;;;;;;;4.65;2.50;;;;;;;18.41;59.23;96314.47;5029123;28;20483;-82
2023/10/04 06:44:57;;;;;;;5.80;2.75;;;;;;;18.61;59.15;96325.63;5020142;28;20198;-82
2023/10/04 06:47:25;;;;;;;8.90;2.92;;;;;;;18.72;58.39;96297.28;5031333;28;20288;-81
2023/10/04 06:49:52;;;;;;;5.60;2.13;;;;;;;18.83;58.20;96294.81;5030757;28;20313;-79
2023/10/04 06:52:19;;;;;;;5.97;2.35;;;;;;;19.13;58.09;96288.97;5027671;28;20216;-80
2023/10/04 06:54:45;;;;;;;4.88;2.25;;;;;;;19.30;57.56;96271.75;5030970;28;20298;-80
2023/10/04 06:57:12;;;;;;;6.47;2.50;;;;;;;19.39;56.97;96239.16;5035869;28;20224;-81
2023/10/04 06:59:38;;;;;;;8.35;6.70;;;;;;;19.53;56.24;96208.50;5034776;28;20232;-80
2023/10/04 07:02:06;;;;;;;5.45;3.78;;;;;;;19.62;55.96;96188.91;5036052;28;20205;-80
2023/10/04 07:04:33;;;;;;;4.90;2.13;;;;;;;19.80;55.83;96193.34;5045236;28;20193;-78
2023/10/04 07:06:59;;;;;;;4.07;2.30;;;;;;;19.93;55.24;96173.06;5054332;28;20229;-80
2023/10/04 07:09:27;;;;;;;3.22;2.22;;;;;;;20.00;54.91;96152.06;5038761;28;20570;-80
2023/10/04 07:11:54;;;;;;;5.68;2.60;;;;;;;20.23;54.76;96153.94;5031216;28;20694;-80
2023/10/04 07:14:20;;;;;;;3.60;2.60;;;;;;;20.38;54.29;96128.22;5021138;28;20217;-80
2023/10/04 07:16:47;;;;;;;3.47;2.13;;;;;;;20.49;53.72;96103.91;5040323;28;20652;-79
2023/10/04 07:19:16;;;;;;;7.38;2.42;;;;;;;20.54;53.21;96069.22;5040992;28;20573;-81
2023/10/04 07:21:42;;;;;;;2.35;2.10;;;;;;;20.67;52.87;96059.31;5039926;28;20225;-80
2023/10/04 07:24:09;;;;;;;3.92;2.25;;;;;;;20.81;52.45;96038.94;5044907;28;20292;-81
2023/10/04 07:26:36;;;;;;;2.70;2.30;;;;;;;21.03;52.23;96026.84;5055180;28;20202;-80
2023/10/04 07:29:03;;;;;;;2.80;2.10;;;;;;;21.16;51.77;96014.53;5035872;28;20668;-80
2023/10/04 07:31:31;;;;;;;2.90;2.35;;;;;;;21.37;51.73;96019.13;5034940;28;20240;-80
2023/10/04 07:33:57;;;;;;;3.10;2.00;;;;;;;21.58;50.68;95962.66;5055169;28;20745;-79
2023/10/04 07:36:25;;;;;;;2.97;2.10;;;;;;;21.63;50.27;95941.78;5049998;28;20205;-80
2023/10/04 07:38:52;;;;;;;3.10;2.20;;;;;;;21.77;49.24;95898.50;5035147;28;20218;-80
2023/10/04 07:41:18;;;;;;;3.83;1.98;;;;;;;21.81;49.14;95888.34;5034811;28;20195;-80
2023/10/04 07:43:44;;;;;;;4.07;2.08;;;;;;;21.89;48.98;95898.44;5033105;28;20198;-80
2023/10/04 07:46:11;;;;;;;3.13;1.90;;;;;;;21.97;49.06;95896.19;5037112;28;20206;-81
2023/10/04 07:48:37;;;;;;;2.72;2.00;;;;;;;21.77;48.87;95879.34;5035885;28;20226;-80
2023/10/04 07:51:04;;;;;;;2.47;2.28;;;;;;;21.97;48.82;95887.53;5045026;28;20687;-80
2023/10/04 07:53:31;;;;;;;2.78;2.13;;;;;;;22.01;48.41;95867.69;5034257;28;20198;-80
2023/10/04 07:55:58;;;;;;;2.80;1.95;;;;;;;22.27;47.97;95853.88;5034330;28;20202;-81
2023/10/04 07:58:24;;;;;;;4.43;2.20;;;;;;;22.28;47.29;95815.31;5034787;28;20217;-80
2023/10/04 08:00:51;;;;;;;6.03;2.75;;;;;;;22.50;47.66;95824.00;5033903;28;20202;-80
2023/10/04 08:03:17;;;;;;;4.15;3.75;;;;;;;22.34;47.49;95809.09;5032418;28;20234;-80
2023/10/04 08:05:43;;;;;;;3.88;2.50;;;;;;;22.14;48.07;95832.44;5030107;28;20659;-79
2023/10/04 08:08:10;;;;;;;3.28;2.30;;;;;;;22.12;47.60;95798.63;5020333;28;20218;-81
2023/10/04 08:10:39;;;;;;;3.40;2.10;;;;;;;22.07;47.99;95811.66;5025150;28;20225;-80
2023/10/04 08:13:06;;;;;;;5.53;2.33;;;;;;;21.84;48.36;95827.56;5032750;28;20680;-80
2023/10/04 08:15:35;;;;;;;6.50;2.15;;;;;;;21.69;48.38;95849.91;5023661;28;20222;-81
2023/10/04 08:18:03;;;;;;;3.05;2.47;;;;;;;21.86;48.16;95830.75;5017864;28;20249;-80
2023/10/04 08:20:32;;;;;;;2.88;2.10;;;;;;;22.00;47.79;95808.41;5033165;28;20252;-80
2023/10/04 08:22:59;;;;;;;3.72;2.10;;;;;;;22.19;48.03;95827.25;5035393;28;20201;-81
2023/10/04 08:25:27;;;;;;;1.98;1.67;;;;;;;22.02;47.34;95778.28;5053518;28;20201;-80
2023/10/04 08:27:56;;;;;;;2.70;2.10;;;;;;;21.85;47.76;95788.00;5049173;28;20256;-81
2023/10/04 08:30:23;;;;;;;3.25;2.30;;;;;;;21.90;47.19;95768.94;5032931;28;20222;-82
2023/10/04 08:32:51;;;;;;;3.22;1.90;;;;;;;21.85;47.39;95788.00;5045834;28;20208;-81
2023/10/04 08:35:24;;;;;;;3.25;2.20;;;;;;;21.85;47.56;95795.84;5035222;28;20283;-80
2023/10/04 08:37:53;;;;;;;2.22;1.75;;;;;;;21.60;48.49;95832.97;5033261;28;20761;-80
2023/10/04 08:40:19;;;;;;;1.83;1.67;;;;;;;21.42;48.58;95832.44;5032756;28;20203;-80
2023/10/04 08:42:50;;;;;;;3.17;2.30;;;;;;;21.42;48.58;95848.16;5028582;28;20253;-81
2023/10/04 08:45:18;;;;;;;6.78;5.28;;;;;;;21.50;48.71;95855.63;5024966;28;20193;-79
2023/10/04 08:47:50;;;;;;;4.72;2.00;;;;;;;21.68;48.13;95811.63;5050499;28;20221;-79
2023/10/04 08:50:20;;;;;;;2.72;1.77;;;;;;;21.55;48.56;95809.31;5030543;28;20202;-78
2023/10/04 08:52:48;;;;;;;5.43;2.10;;;;;;;21.60;48.35;95846.09;5025456;28;20213;-79
2023/10/04 08:55:22;;;;;;;4.78;2.08;;;;;;;21.65;48.46;95840.94;5013633;28;20249;-79
2023/10/04 08:57:51;;;;;;;2.97;2.00;;;;;;;21.77;48.86;95847.91;5019204;28;20222;-79
2023/10/04 09:00:23;;;;;;;4.85;4.25;;;;;;;21.75;49.00;95876.16;5029541;28;20201;-78
2023/10/04 09:02:51;;;;;;;4.00;2.35;;;;;;;21.74;48.86;95861.50;5048768;28;20209;-79
2023/10/04 09:05:23;;;;;;;2.50;1.80;;;;;;;21.71;48.27;95832.13;5037614;28;20209;-79
2023/10/04 09:07:50;;;;;;;2.92;2.15;;;;;;;21.71;48.73;95855.72;5035377;28;20222;-78
2023/10/04 09:10:19;;;;;;;4.63;2.20;;;;;;;21.87;49.17;95869.81;5014166;28;20680;-80
2023/10/04 09:12:47;;;;;;;2.35;1.98;;;;;;;22.12;48.20;95835.34;5018954;28;20281;-79
2023/10/04 09:15:14;;;;;;;3.03;2.00;;;;;;;22.13;48.21;95836.13;5024295;28;20670;-79
2023/10/04 09:17:47;;;;;;;2.78;2.10;;;;;;;21.86;47.50;95789.59;5013847;28;20272;-80
2023/10/04 09:20:16;;;;;;;2.20;1.75;;;;;;;21.68;47.62;95792.47;5035214;28;20216;-79
2023/10/04 09:22:42;;;;;;;3.00;1.90;;;;;;;21.56;48.15;95802.25;5032749;28;20252;-81
2023/10/04 09:25:10;;;;;;;2.85;1.83;;;;;;;21.38;48.53;95822.41;5034059;28;20201;-80
2023/10/04 09:27:37;;;;;;;6.60;5.82;;;;;;;21.25;49.16;95853.38;5033889;28;20321;-81
2023/10/04 09:30:20;;;;;;;7.85;6.93;;;;;;;21.10;49.55;95881.91;5033157;28;20217;-79
2023/10/04 09:32:49;;;;;;;4.65;2.75;;;;;;;21.02;49.50;95868.16;5032460;28;20194;-81
2023/10/04 09:35:18;;;;;;;3.95;2.03;;;;;;;21.04;49.50;95878.38;5032043;28;20233;-79
2023/10/04 09:37:45;;;;;;;4.60;2.05;;;;;;;21.12;49.96;95919.91;5032286;28;20214;-79
2023/10/04 09:40:13;;;;;;;2.55;1.92;;;;;;;20.98;50.02;95898.44;5030243;28;20210;-80
2023/10/04 09:42:49;;;;;;;3.15;1.58;;;;;;;20.70;49.93;95877.50;5031841;28;20277;-79
2023/10/04 09:45:15;;;;;;;2.97;2.15;;;;;;;20.58;50.07;95881.97;5041178;28;20200;-80
2023/10/04 09:47:42;;;;;;;2.72;2.10;;;;;;;20.62;50.93;95944.06;5053972;28;20229;-80
2023/10/04 09:50:12;;;;;;;2.83;1.83;;;;;;;20.64;49.35;95852.25;5049016;28;20209;-81
2023/10/04 09:52:39;;;;;;;2.65;2.05;;;;;;;20.66;48.52;95809.13;5031831;28;20305;-80
2023/10/04 09:55:08;;;;;;;2.30;1.63;;;;;;;20.56;48.73;95806.34;5029674;28;20683;-79
2023/10/04 09:57:37;;;;;;;3.22;1.92;;;;;;;20.69;48.96;95813.09;5031676;28;20258;-79
2023/10/04 10:00:06;;;;;;;2.40;2.20;;;;;;;21.03;49.14;95835.69;5018828;28;20209;-79
2023/10/04 10:02:37;;;;;;;8.93;8.02;;;;;;;21.37;48.22;95793.84;5023889;28;20202;-79
2023/10/04 10:05:06;;;;;;;6.10;5.50;;;;;;;21.56;47.78;95749.84;5032164;28;20221;-80
2023/10/04 10:07:35;;;;;;;2.85;2.33;;;;;;;21.83;47.28;95755.19;5030741;28;20253;-79
2023/10/04 10:10:05;;;;;;;4.15;2.47;;;;;;;21.77;46.32;95680.13;5032176;28;20202;-79
2023/10/04 10:12:32;;;;;;;2.72;2.03;;;;;;;21.85;47.18;95714.59;5030463;28;20642;-79
2023/10/04 10:15:00;;;;;;;3.30;2.25;;;;;;;22.02;47.80;95746.81;5025584;28;20241;-80
2023/10/04 10:17:27;;;;;;;2.72;2.20;;;;;;;21.96;47.64;95754.81;5024816;28;20275;-80
2023/10/04 10:19:56;;;;;;;2.55;2.08;;;;;;;21.93;47.16;95748.25;5032039;28;20579;-79
2023/10/04 10:22:22;;;;;;;9.85;2.60;;;;;;;21.74;48.92;95848.41;5030732;28;20198;-81
2023/10/04 10:25:14;;;;;;;4.10;1.92;;;;;;;21.70;49.14;95851.50;5036914;28;20201;-81
2023/10/04 10:27:44;;;;;;;4.65;2.20;;;;;;;21.81;48.42;95775.59;5029828;28;20222;-81
2023/10/04 10:30:12;;;;;;;2.78;2.10;;;;;;;22.04;47.99;95788.53;5033890;28;20209;-84
2023/10/04 10:32:58;;;;;;;3.97;2.00;;;;;;;22.30;46.80;95729.31;5035934;28;20218;-84
2023/10/04 10:35:59;;;;;;;3.58;2.08;;;;;;;22.39;48.39;95804.69;5035332;28;20293;-84
2023/10/04 10:38:30;;;;;;;6.72;2.00;;;;;;;22.43;46.01;95665.13;5028057;28;20213;-80
2023/10/04 10:40:58;;;;;;;3.53;2.10;;;;;;;22.44;44.10;95561.78;5034445;28;20805;-81
2023/10/04 10:43:25;;;;;;;3.60;2.50;;;;;;;22.20;43.90;95525.38;5030122;28;20210;-81
2023/10/04 10:45:51;;;;;;;3.58;2.10;;;;;;;22.32;44.61;95546.97;5045005;28;20205;-80
2023/10/04 10:48:30;;;;;;;2.47;2.00;;;;;;;22.14;43.55;95489.66;5059293;28;20225;-81
2023/10/04 10:50:56;;;;;;;11.63;10.50;;;;;;;22.27;44.08;95525.97;5053287;28;20814;-81
2023/10/04 10:53:23;;;;;;;2.50;2.10;;;;;;;22.26;43.76;95498.16;5035330;28;20197;-82
2023/10/04 10:55:50;;;;;;;2.88;2.20;;;;;;;22.35;44.17;95515.00;5023379;28;20265;-81
2023/10/04 10:58:18;;;;;;;2.28;1.88;;;;;;;22.16;44.07;95513.00;5031095;28;20252;-83
2023/10/04 11:00:46;;;;;;;4.00;2.08;;;;;;;22.15;44.12;95514.84;5038950;28;20201;-81
2023/10/04 11:03:13;;;;;;;2.63;1.80;;;;;;;22.21;43.75;95508.59;5026404;28;20208;-81
2023/10/04 11:05:40;;;;;;;2.40;1.95;;;;;;;22.25;44.33;95535.13;5030128;28;20200;-80
2023/10/04 11:08:07;;;;;;;3.13;2.08;;;;;;;22.18;44.98;95573.88;5035506;28;20226;-79
2023/10/04 11:10:36;;;;;;;4.03;2.53;;;;;;;22.31;45.41;95607.59;5036691;28;20255;-80
2023/10/04 11:13:08;;;;;;;21.02;18.73;;;;;;;22.13;45.09;95577.25;5035827;28;20637;-80
2023/10/04 11:15:37;;;;;;;7.57;6.22;;;;;;;22.21;45.88;95625.84;5033071;28;20281;-81
2023/10/04 11:18:06;;;;;;;3.90;2.65;;;;;;;21.90;45.84;95606.38;5037026;28;20599;-79
2023/10/04 11:20:36;;;;;;;4.95;2.65;;;;;;;21.58;45.78;95587.94;5036687;28;20198;-79
2023/10/04 11:23:02;;;;;;;3.20;2.60;;;;;;;21.47;46.26;95623.72;5040448;28;20193;-78
2023/10/04 11:25:29;;;;;;;3.25;2.60;;;;;;;21.56;46.22;95613.56;5046116;28;20221;-80
2023/10/04 11:27:56;;;;;;;2.70;1.88;;;;;;;21.58;46.15;95612.31;5038011;28;20316;-80
2023/10/04 11:30:23;;;;;;;2.42;1.92;;;;;;;21.63;45.76;95590.63;5032637;28;20211;-79
2023/10/04 11:32:52;;;;;;;2.95;2.38;;;;;;;21.55;46.29;95620.66;5028067;28;20232;-79
2023/10/04 11:35:19;;;;;;;3.33;2.05;;;;;;;21.38;46.48;95607.63;5036790;28;20201;-79
2023/10/04 11:37:48;;;;;;;3.35;2.00;;;;;;;21.20;46.52;95607.13;5036771;28;20259;-80
2023/10/04 11:40:19;;;;;;;2.90;2.35;;;;;;;21.21;45.97;95583.31;5037624;28;20212;-79